sensor_id;sensor_type;location;lat;lon;timestamp;P1;durP1;ratioP1;P2;durP2;ratioP2
22924;SDS011;11628;51.072;3.712;2023-01-31T00:01:15;25.98;;;10.30;;
22924;SDS011;11628;51.072;3.712;2023-01-31T00:06:23;29.08;;;10.52;;
22924;SDS011;11628;51.072;3.712;2023-01-31T00:08:50;25.17;;;9.43;;
22924;SDS011;11628;51.072;3.712;2023-01-31T00:11:19;33.42;;;9.82;;
22924;SDS011;11628;51.072;3.712;2023-01-31T00:13:48;28.85;;;9.80;;
22924;SDS011;11628;51.072;3.712;2023-01-31T00:16:15;26.33;;;9.85;;
22924;SDS011;11628;51.072;3.712;2023-01-31T00:18:42;26.13;;;10.32;;
22924;SDS011;11628;51.072;3.712;2023-01-31T00:23:39;31.33;;;13.48;;
22924;SDS011;11628;51.072;3.712;2023-01-31T00:26:13;29.88;;;10.75;;
22924;SDS011;11628;51.072;3.712;2023-01-31T00:28:48;25.08;;;9.80;;
22924;SDS011;11628;51.072;3.712;2023-01-31T00:31:16;26.13;;;9.27;;
22924;SDS011;11628;51.072;3.712;2023-01-31T00:33:44;21.92;;;10.13;;
22924;SDS011;11628;51.072;3.712;2023-01-31T00:36:13;25.88;;;9.35;;
22924;SDS011;11628;51.072;3.712;2023-01-31T00:38:42;21.50;;;8.93;;
22924;SDS011;11628;51.072;3.712;2023-01-31T00:41:08;23.02;;;9.02;;
22924;SDS011;11628;51.072;3.712;2023-01-31T00:43:35;24.45;;;8.85;;
22924;SDS011;11628;51.072;3.712;2023-01-31T00:46:02;25.35;;;9.35;;
22924;SDS011;11628;51.072;3.712;2023-01-31T00:48:28;38.10;;;14.48;;
22924;SDS011;11628;51.072;3.712;2023-01-31T00:50:55;44.40;;;16.83;;
22924;SDS011;11628;51.072;3.712;2023-01-31T00:53:21;27.23;;;10.95;;
22924;SDS011;11628;51.072;3.712;2023-01-31T00:55:49;29.02;;;11.98;;
22924;SDS011;11628;51.072;3.712;2023-01-31T00:58:17;31.02;;;11.05;;
22924;SDS011;11628;51.072;3.712;2023-01-31T01:00:43;40.90;;;12.45;;
22924;SDS011;11628;51.072;3.712;2023-01-31T01:03:10;35.33;;;12.70;;
22924;SDS011;11628;51.072;3.712;2023-01-31T01:05:35;29.77;;;12.13;;
22924;SDS011;11628;51.072;3.712;2023-01-31T01:08:01;30.95;;;10.02;;
22924;SDS011;11628;51.072;3.712;2023-01-31T01:10:27;26.30;;;9.75;;
22924;SDS011;11628;51.072;3.712;2023-01-31T01:12:53;25.80;;;9.00;;
22924;SDS011;11628;51.072;3.712;2023-01-31T01:15:19;19.23;;;8.68;;
22924;SDS011;11628;51.072;3.712;2023-01-31T01:17:45;27.10;;;9.18;;
22924;SDS011;11628;51.072;3.712;2023-01-31T01:20:12;27.85;;;8.50;;
22924;SDS011;11628;51.072;3.712;2023-01-31T01:22:38;25.52;;;8.70;;
22924;SDS011;11628;51.072;3.712;2023-01-31T01:25:04;29.02;;;8.93;;
22924;SDS011;11628;51.072;3.712;2023-01-31T01:27:31;23.73;;;8.95;;
22924;SDS011;11628;51.072;3.712;2023-01-31T01:29:57;27.58;;;11.13;;
22924;SDS011;11628;51.072;3.712;2023-01-31T01:32:23;40.33;;;16.40;;
22924;SDS011;11628;51.072;3.712;2023-01-31T01:34:50;38.83;;;13.82;;
22924;SDS011;11628;51.072;3.712;2023-01-31T01:37:16;27.35;;;9.40;;
22924;SDS011;11628;51.072;3.712;2023-01-31T01:39:46;21.40;;;8.68;;
22924;SDS011;11628;51.072;3.712;2023-01-31T01:42:20;24.85;;;8.95;;
22924;SDS011;11628;51.072;3.712;2023-01-31T01:44:49;26.98;;;9.13;;
22924;SDS011;11628;51.072;3.712;2023-01-31T01:49:55;23.30;;;9.38;;
22924;SDS011;11628;51.072;3.712;2023-01-31T01:52:27;27.05;;;9.32;;
22924;SDS011;11628;51.072;3.712;2023-01-31T01:57:28;26.20;;;9.45;;
22924;SDS011;11628;51.072;3.712;2023-01-31T02:00:02;30.38;;;11.30;;
22924;SDS011;11628;51.072;3.712;2023-01-31T02:02:34;49.00;;;19.55;;
22924;SDS011;11628;51.072;3.712;2023-01-31T02:05:01;31.90;;;12.48;;
22924;SDS011;11628;51.072;3.712;2023-01-31T02:07:28;30.60;;;10.82;;
22924;SDS011;11628;51.072;3.712;2023-01-31T02:09:57;26.75;;;9.63;;
22924;SDS011;11628;51.072;3.712;2023-01-31T02:12:32;28.75;;;11.68;;
22924;SDS011;11628;51.072;3.712;2023-01-31T02:15:00;23.63;;;10.60;;
22924;SDS011;11628;51.072;3.712;2023-01-31T02:17:26;24.50;;;10.10;;
22924;SDS011;11628;51.072;3.712;2023-01-31T02:22:37;29.98;;;11.68;;
22924;SDS011;11628;51.072;3.712;2023-01-31T02:36:36;30.65;;;11.68;;
22924;SDS011;11628;51.072;3.712;2023-01-31T02:39:32;28.70;;;10.50;;
22924;SDS011;11628;51.072;3.712;2023-01-31T02:42:09;25.33;;;9.20;;
22924;SDS011;11628;51.072;3.712;2023-01-31T02:45:02;24.30;;;9.90;;
22924;SDS011;11628;51.072;3.712;2023-01-31T02:53:05;26.40;;;9.68;;
22924;SDS011;11628;51.072;3.712;2023-01-31T02:58:33;20.77;;;8.00;;
22924;SDS011;11628;51.072;3.712;2023-01-31T03:01:03;17.88;;;8.57;;
22924;SDS011;11628;51.072;3.712;2023-01-31T03:03:31;15.98;;;8.43;;
22924;SDS011;11628;51.072;3.712;2023-01-31T03:08:47;21.88;;;8.95;;
22924;SDS011;11628;51.072;3.712;2023-01-31T03:11:23;23.70;;;8.75;;
22924;SDS011;11628;51.072;3.712;2023-01-31T03:16:31;24.15;;;10.07;;
22924;SDS011;11628;51.072;3.712;2023-01-31T03:19:27;27.02;;;9.85;;
22924;SDS011;11628;51.072;3.712;2023-01-31T03:22:05;20.50;;;8.98;;
22924;SDS011;11628;51.072;3.712;2023-01-31T03:24:36;22.88;;;9.55;;
22924;SDS011;11628;51.072;3.712;2023-01-31T03:27:03;22.73;;;9.15;;
22924;SDS011;11628;51.072;3.712;2023-01-31T03:29:31;23.45;;;9.85;;
22924;SDS011;11628;51.072;3.712;2023-01-31T03:32:05;25.67;;;11.15;;
22924;SDS011;11628;51.072;3.712;2023-01-31T03:34:44;25.52;;;11.55;;
22924;SDS011;11628;51.072;3.712;2023-01-31T03:40:01;24.25;;;9.00;;
22924;SDS011;11628;51.072;3.712;2023-01-31T03:45:22;26.92;;;10.02;;
22924;SDS011;11628;51.072;3.712;2023-01-31T03:48:00;21.98;;;9.23;;
22924;SDS011;11628;51.072;3.712;2023-01-31T03:50:29;24.27;;;10.15;;
22924;SDS011;11628;51.072;3.712;2023-01-31T03:53:08;31.05;;;11.18;;
22924;SDS011;11628;51.072;3.712;2023-01-31T03:55:42;30.33;;;11.70;;
22924;SDS011;11628;51.072;3.712;2023-01-31T03:58:21;25.08;;;9.90;;
22924;SDS011;11628;51.072;3.712;2023-01-31T04:00:53;22.58;;;8.32;;
22924;SDS011;11628;51.072;3.712;2023-01-31T04:03:25;26.60;;;9.13;;
22924;SDS011;11628;51.072;3.712;2023-01-31T04:05:54;23.52;;;8.02;;
22924;SDS011;11628;51.072;3.712;2023-01-31T04:08:20;23.17;;;8.27;;
22924;SDS011;11628;51.072;3.712;2023-01-31T04:10:47;19.77;;;7.97;;
22924;SDS011;11628;51.072;3.712;2023-01-31T04:13:14;35.13;;;13.60;;
22924;SDS011;11628;51.072;3.712;2023-01-31T04:15:41;37.88;;;13.82;;
22924;SDS011;11628;51.072;3.712;2023-01-31T04:18:07;24.98;;;9.90;;
22924;SDS011;11628;51.072;3.712;2023-01-31T04:20:33;23.55;;;8.80;;
22924;SDS011;11628;51.072;3.712;2023-01-31T04:22:58;26.88;;;8.00;;
22924;SDS011;11628;51.072;3.712;2023-01-31T04:25:24;24.23;;;7.50;;
22924;SDS011;11628;51.072;3.712;2023-01-31T04:27:50;25.40;;;8.25;;
22924;SDS011;11628;51.072;3.712;2023-01-31T04:30:17;25.27;;;8.70;;
22924;SDS011;11628;51.072;3.712;2023-01-31T04:32:43;23.13;;;7.93;;
22924;SDS011;11628;51.072;3.712;2023-01-31T04:35:09;22.95;;;7.80;;
22924;SDS011;11628;51.072;3.712;2023-01-31T04:37:35;18.70;;;7.75;;
22924;SDS011;11628;51.072;3.712;2023-01-31T04:40:01;30.77;;;7.60;;
22924;SDS011;11628;51.072;3.712;2023-01-31T04:42:27;22.40;;;7.32;;
22924;SDS011;11628;51.072;3.712;2023-01-31T04:44:53;27.38;;;8.07;;
22924;SDS011;11628;51.072;3.712;2023-01-31T04:47:20;20.25;;;7.70;;
22924;SDS011;11628;51.072;3.712;2023-01-31T04:49:45;21.00;;;7.90;;
22924;SDS011;11628;51.072;3.712;2023-01-31T04:52:11;22.48;;;7.68;;
22924;SDS011;11628;51.072;3.712;2023-01-31T04:54:37;23.70;;;7.95;;
22924;SDS011;11628;51.072;3.712;2023-01-31T04:57:03;26.92;;;7.72;;
22924;SDS011;11628;51.072;3.712;2023-01-31T04:59:29;20.77;;;8.15;;
22924;SDS011;11628;51.072;3.712;2023-01-31T05:01:55;20.30;;;7.50;;
22924;SDS011;11628;51.072;3.712;2023-01-31T05:04:20;24.10;;;8.10;;
22924;SDS011;11628;51.072;3.712;2023-01-31T05:06:47;16.00;;;7.00;;
22924;SDS011;11628;51.072;3.712;2023-01-31T05:09:13;23.50;;;7.05;;
22924;SDS011;11628;51.072;3.712;2023-01-31T05:11:39;19.70;;;6.47;;
22924;SDS011;11628;51.072;3.712;2023-01-31T05:14:05;21.70;;;6.38;;
22924;SDS011;11628;51.072;3.712;2023-01-31T05:16:31;19.25;;;7.18;;
22924;SDS011;11628;51.072;3.712;2023-01-31T05:18:57;24.48;;;6.50;;
22924;SDS011;11628;51.072;3.712;2023-01-31T05:21:22;21.75;;;6.63;;
22924;SDS011;11628;51.072;3.712;2023-01-31T05:23:49;23.50;;;5.90;;
22924;SDS011;11628;51.072;3.712;2023-01-31T05:26:15;22.27;;;6.45;;
22924;SDS011;11628;51.072;3.712;2023-01-31T05:28:41;18.77;;;6.80;;
22924;SDS011;11628;51.072;3.712;2023-01-31T05:31:07;22.40;;;6.38;;
22924;SDS011;11628;51.072;3.712;2023-01-31T05:33:34;20.23;;;6.53;;
22924;SDS011;11628;51.072;3.712;2023-01-31T05:36:01;15.75;;;5.50;;
22924;SDS011;11628;51.072;3.712;2023-01-31T05:38:27;21.65;;;6.82;;
22924;SDS011;11628;51.072;3.712;2023-01-31T05:40:54;20.38;;;6.93;;
22924;SDS011;11628;51.072;3.712;2023-01-31T05:43:20;21.95;;;6.13;;
22924;SDS011;11628;51.072;3.712;2023-01-31T05:45:46;22.17;;;7.32;;
22924;SDS011;11628;51.072;3.712;2023-01-31T05:48:13;21.08;;;7.22;;
22924;SDS011;11628;51.072;3.712;2023-01-31T05:50:39;22.52;;;7.38;;
22924;SDS011;11628;51.072;3.712;2023-01-31T05:53:05;18.30;;;6.88;;
22924;SDS011;11628;51.072;3.712;2023-01-31T05:55:31;17.70;;;6.70;;
22924;SDS011;11628;51.072;3.712;2023-01-31T05:57:57;19.52;;;6.32;;
22924;SDS011;11628;51.072;3.712;2023-01-31T06:00:24;19.95;;;6.60;;
22924;SDS011;11628;51.072;3.712;2023-01-31T06:02:51;21.88;;;7.40;;
22924;SDS011;11628;51.072;3.712;2023-01-31T06:05:17;21.90;;;6.22;;
22924;SDS011;11628;51.072;3.712;2023-01-31T06:07:43;18.27;;;6.20;;
22924;SDS011;11628;51.072;3.712;2023-01-31T06:10:09;17.50;;;6.07;;
22924;SDS011;11628;51.072;3.712;2023-01-31T06:12:36;17.45;;;5.95;;
22924;SDS011;11628;51.072;3.712;2023-01-31T06:15:02;19.60;;;6.10;;
22924;SDS011;11628;51.072;3.712;2023-01-31T06:17:28;23.05;;;6.00;;
22924;SDS011;11628;51.072;3.712;2023-01-31T06:19:55;15.93;;;5.97;;
22924;SDS011;11628;51.072;3.712;2023-01-31T06:22:21;17.10;;;5.70;;
22924;SDS011;11628;51.072;3.712;2023-01-31T06:24:48;18.77;;;5.45;;
22924;SDS011;11628;51.072;3.712;2023-01-31T06:27:14;21.90;;;6.55;;
22924;SDS011;11628;51.072;3.712;2023-01-31T06:29:40;22.05;;;6.13;;
22924;SDS011;11628;51.072;3.712;2023-01-31T06:32:06;20.92;;;6.45;;
22924;SDS011;11628;51.072;3.712;2023-01-31T06:34:32;22.42;;;5.63;;
22924;SDS011;11628;51.072;3.712;2023-01-31T06:36:58;27.20;;;7.25;;
22924;SDS011;11628;51.072;3.712;2023-01-31T06:39:26;17.38;;;6.00;;
22924;SDS011;11628;51.072;3.712;2023-01-31T06:41:52;19.38;;;5.70;;
22924;SDS011;11628;51.072;3.712;2023-01-31T06:44:18;23.35;;;6.45;;
22924;SDS011;11628;51.072;3.712;2023-01-31T06:46:44;20.02;;;5.32;;
22924;SDS011;11628;51.072;3.712;2023-01-31T06:49:10;20.33;;;6.03;;
22924;SDS011;11628;51.072;3.712;2023-01-31T06:51:37;16.38;;;4.95;;
22924;SDS011;11628;51.072;3.712;2023-01-31T06:54:03;17.63;;;5.30;;
22924;SDS011;11628;51.072;3.712;2023-01-31T06:56:29;14.80;;;4.60;;
22924;SDS011;11628;51.072;3.712;2023-01-31T06:58:56;22.95;;;6.97;;
22924;SDS011;11628;51.072;3.712;2023-01-31T07:01:21;17.70;;;5.38;;
22924;SDS011;11628;51.072;3.712;2023-01-31T07:03:48;19.85;;;5.28;;
22924;SDS011;11628;51.072;3.712;2023-01-31T07:06:14;20.13;;;5.97;;
22924;SDS011;11628;51.072;3.712;2023-01-31T07:08:39;21.33;;;5.80;;
22924;SDS011;11628;51.072;3.712;2023-01-31T07:11:05;22.35;;;6.03;;
22924;SDS011;11628;51.072;3.712;2023-01-31T07:13:31;19.95;;;5.75;;
22924;SDS011;11628;51.072;3.712;2023-01-31T07:15:58;17.92;;;4.78;;
22924;SDS011;11628;51.072;3.712;2023-01-31T07:18:24;16.27;;;5.60;;
22924;SDS011;11628;51.072;3.712;2023-01-31T07:20:50;19.63;;;5.75;;
22924;SDS011;11628;51.072;3.712;2023-01-31T07:23:16;21.08;;;7.20;;
22924;SDS011;11628;51.072;3.712;2023-01-31T07:25:42;25.25;;;6.18;;
22924;SDS011;11628;51.072;3.712;2023-01-31T07:28:08;23.73;;;8.43;;
22924;SDS011;11628;51.072;3.712;2023-01-31T07:30:35;26.40;;;6.03;;
22924;SDS011;11628;51.072;3.712;2023-01-31T07:33:00;17.75;;;6.40;;
22924;SDS011;11628;51.072;3.712;2023-01-31T07:35:26;18.05;;;6.13;;
22924;SDS011;11628;51.072;3.712;2023-01-31T07:37:52;23.58;;;6.88;;
22924;SDS011;11628;51.072;3.712;2023-01-31T07:40:19;20.23;;;6.55;;
22924;SDS011;11628;51.072;3.712;2023-01-31T07:42:45;18.67;;;6.35;;
22924;SDS011;11628;51.072;3.712;2023-01-31T07:45:12;25.90;;;7.53;;
22924;SDS011;11628;51.072;3.712;2023-01-31T07:47:39;20.27;;;6.50;;
22924;SDS011;11628;51.072;3.712;2023-01-31T07:50:06;21.20;;;6.45;;
22924;SDS011;11628;51.072;3.712;2023-01-31T07:52:33;21.02;;;6.40;;
22924;SDS011;11628;51.072;3.712;2023-01-31T07:54:59;20.00;;;6.20;;
22924;SDS011;11628;51.072;3.712;2023-01-31T07:57:25;14.75;;;5.47;;
22924;SDS011;11628;51.072;3.712;2023-01-31T07:59:50;24.17;;;6.03;;
22924;SDS011;11628;51.072;3.712;2023-01-31T08:02:16;19.35;;;6.25;;
22924;SDS011;11628;51.072;3.712;2023-01-31T08:05:01;14.38;;;4.80;;
22924;SDS011;11628;51.072;3.712;2023-01-31T08:07:27;23.30;;;6.75;;
22924;SDS011;11628;51.072;3.712;2023-01-31T08:09:54;22.10;;;7.60;;
22924;SDS011;11628;51.072;3.712;2023-01-31T08:12:20;21.10;;;6.20;;
22924;SDS011;11628;51.072;3.712;2023-01-31T08:14:46;28.20;;;12.90;;
22924;SDS011;11628;51.072;3.712;2023-01-31T08:17:12;21.27;;;6.30;;
22924;SDS011;11628;51.072;3.712;2023-01-31T08:19:38;20.67;;;5.68;;
22924;SDS011;11628;51.072;3.712;2023-01-31T08:22:04;17.35;;;5.93;;
22924;SDS011;11628;51.072;3.712;2023-01-31T08:24:31;19.45;;;5.95;;
22924;SDS011;11628;51.072;3.712;2023-01-31T08:26:57;26.85;;;6.70;;
22924;SDS011;11628;51.072;3.712;2023-01-31T08:29:24;19.70;;;5.85;;
22924;SDS011;11628;51.072;3.712;2023-01-31T08:31:50;20.92;;;5.95;;
22924;SDS011;11628;51.072;3.712;2023-01-31T08:34:17;18.55;;;6.53;;
22924;SDS011;11628;51.072;3.712;2023-01-31T08:36:43;16.98;;;4.97;;
22924;SDS011;11628;51.072;3.712;2023-01-31T08:39:09;19.35;;;5.22;;
22924;SDS011;11628;51.072;3.712;2023-01-31T08:41:35;20.27;;;5.20;;
22924;SDS011;11628;51.072;3.712;2023-01-31T08:44:03;18.17;;;4.60;;
22924;SDS011;11628;51.072;3.712;2023-01-31T08:46:31;12.73;;;4.30;;
22924;SDS011;11628;51.072;3.712;2023-01-31T08:48:59;21.60;;;4.88;;
22924;SDS011;11628;51.072;3.712;2023-01-31T08:51:28;18.05;;;4.57;;
22924;SDS011;11628;51.072;3.712;2023-01-31T08:53:54;19.20;;;5.53;;
22924;SDS011;11628;51.072;3.712;2023-01-31T08:56:20;20.73;;;5.50;;
22924;SDS011;11628;51.072;3.712;2023-01-31T08:58:50;22.70;;;6.03;;
22924;SDS011;11628;51.072;3.712;2023-01-31T09:01:17;15.93;;;4.75;;
22924;SDS011;11628;51.072;3.712;2023-01-31T09:03:44;20.00;;;4.97;;
22924;SDS011;11628;51.072;3.712;2023-01-31T09:06:14;14.98;;;5.45;;
22924;SDS011;11628;51.072;3.712;2023-01-31T09:08:42;22.13;;;5.22;;
22924;SDS011;11628;51.072;3.712;2023-01-31T09:11:08;20.23;;;6.05;;
22924;SDS011;11628;51.072;3.712;2023-01-31T09:13:34;18.65;;;4.82;;
22924;SDS011;11628;51.072;3.712;2023-01-31T09:16:07;14.02;;;4.90;;
22924;SDS011;11628;51.072;3.712;2023-01-31T09:18:35;16.83;;;5.35;;
22924;SDS011;11628;51.072;3.712;2023-01-31T09:21:09;13.95;;;4.00;;
22924;SDS011;11628;51.072;3.712;2023-01-31T09:23:43;19.75;;;5.15;;
22924;SDS011;11628;51.072;3.712;2023-01-31T09:26:10;19.15;;;5.20;;
22924;SDS011;11628;51.072;3.712;2023-01-31T09:28:37;17.60;;;4.63;;
22924;SDS011;11628;51.072;3.712;2023-01-31T09:31:07;15.10;;;5.18;;
22924;SDS011;11628;51.072;3.712;2023-01-31T09:33:35;16.40;;;5.30;;
22924;SDS011;11628;51.072;3.712;2023-01-31T09:36:02;14.75;;;4.25;;
22924;SDS011;11628;51.072;3.712;2023-01-31T09:38:34;12.83;;;4.43;;
22924;SDS011;11628;51.072;3.712;2023-01-31T09:41:02;16.77;;;4.35;;
22924;SDS011;11628;51.072;3.712;2023-01-31T09:43:32;13.88;;;4.70;;
22924;SDS011;11628;51.072;3.712;2023-01-31T09:46:02;15.90;;;4.20;;
22924;SDS011;11628;51.072;3.712;2023-01-31T09:48:33;18.15;;;3.80;;
22924;SDS011;11628;51.072;3.712;2023-01-31T09:51:02;15.20;;;3.80;;
22924;SDS011;11628;51.072;3.712;2023-01-31T09:53:34;13.18;;;3.85;;
22924;SDS011;11628;51.072;3.712;2023-01-31T10:01:48;13.48;;;3.33;;
22924;SDS011;11628;51.072;3.712;2023-01-31T10:09:29;17.92;;;4.90;;
22924;SDS011;11628;51.072;3.712;2023-01-31T10:12:06;13.63;;;3.90;;
22924;SDS011;11628;51.072;3.712;2023-01-31T10:14:50;21.63;;;5.18;;
22924;SDS011;11628;51.072;3.712;2023-01-31T10:17:38;18.50;;;4.22;;
22924;SDS011;11628;51.072;3.712;2023-01-31T10:20:21;16.08;;;4.38;;
22924;SDS011;11628;51.072;3.712;2023-01-31T10:23:06;15.35;;;4.25;;
22924;SDS011;11628;51.072;3.712;2023-01-31T10:25:56;19.58;;;4.93;;
22924;SDS011;11628;51.072;3.712;2023-01-31T10:33:50;12.50;;;3.28;;
22924;SDS011;11628;51.072;3.712;2023-01-31T10:38:57;21.80;;;4.68;;
22924;SDS011;11628;51.072;3.712;2023-01-31T10:44:40;13.80;;;3.60;;
22924;SDS011;11628;51.072;3.712;2023-01-31T10:47:15;13.65;;;3.40;;
22924;SDS011;11628;51.072;3.712;2023-01-31T10:49:44;13.20;;;3.47;;
22924;SDS011;11628;51.072;3.712;2023-01-31T10:57:43;17.45;;;3.70;;
22924;SDS011;11628;51.072;3.712;2023-01-31T11:00:18;16.50;;;3.47;;
22924;SDS011;11628;51.072;3.712;2023-01-31T11:02:47;13.68;;;3.30;;
22924;SDS011;11628;51.072;3.712;2023-01-31T11:05:15;12.95;;;3.75;;
22924;SDS011;11628;51.072;3.712;2023-01-31T11:07:44;18.13;;;3.72;;
22924;SDS011;11628;51.072;3.712;2023-01-31T11:13:02;11.23;;;3.03;;
22924;SDS011;11628;51.072;3.712;2023-01-31T11:15:35;16.63;;;3.60;;
22924;SDS011;11628;51.072;3.712;2023-01-31T11:18:03;12.57;;;3.00;;
22924;SDS011;11628;51.072;3.712;2023-01-31T11:20:31;20.63;;;5.50;;
22924;SDS011;11628;51.072;3.712;2023-01-31T11:23:01;10.60;;;2.30;;
22924;SDS011;11628;51.072;3.712;2023-01-31T11:25:31;13.15;;;2.83;;
22924;SDS011;11628;51.072;3.712;2023-01-31T11:28:15;12.07;;;3.10;;
22924;SDS011;11628;51.072;3.712;2023-01-31T11:30:49;18.65;;;3.55;;
22924;SDS011;11628;51.072;3.712;2023-01-31T11:36:09;12.50;;;2.75;;
22924;SDS011;11628;51.072;3.712;2023-01-31T11:38:37;17.00;;;2.50;;
22924;SDS011;11628;51.072;3.712;2023-01-31T11:41:46;13.63;;;2.65;;
22924;SDS011;11628;51.072;3.712;2023-01-31T11:44:05;14.20;;;3.70;;
22924;SDS011;11628;51.072;3.712;2023-01-31T11:46:50;13.57;;;3.78;;
22924;SDS011;11628;51.072;3.712;2023-01-31T11:49:37;11.90;;;2.90;;
22924;SDS011;11628;51.072;3.712;2023-01-31T11:52:16;10.50;;;2.42;;
22924;SDS011;11628;51.072;3.712;2023-01-31T11:54:46;15.18;;;2.78;;
22924;SDS011;11628;51.072;3.712;2023-01-31T11:57:18;13.18;;;3.05;;
22924;SDS011;11628;51.072;3.712;2023-01-31T11:59:51;14.20;;;3.20;;
22924;SDS011;11628;51.072;3.712;2023-01-31T12:02:25;15.27;;;2.75;;
22924;SDS011;11628;51.072;3.712;2023-01-31T12:05:09;16.83;;;3.17;;
22924;SDS011;11628;51.072;3.712;2023-01-31T12:07:48;16.33;;;4.25;;
22924;SDS011;11628;51.072;3.712;2023-01-31T12:10:34;15.48;;;2.70;;
22924;SDS011;11628;51.072;3.712;2023-01-31T12:13:12;10.23;;;2.78;;
22924;SDS011;11628;51.072;3.712;2023-01-31T12:16:13;13.18;;;2.67;;
22924;SDS011;11628;51.072;3.712;2023-01-31T12:40:33;15.75;;;2.95;;
22924;SDS011;11628;51.072;3.712;2023-01-31T12:42:55;16.30;;;3.38;;
22924;SDS011;11628;51.072;3.712;2023-01-31T12:51:04;18.20;;;3.53;;
22924;SDS011;11628;51.072;3.712;2023-01-31T12:53:50;11.80;;;3.08;;
22924;SDS011;11628;51.072;3.712;2023-01-31T13:07:21;13.40;;;3.22;;
22924;SDS011;11628;51.072;3.712;2023-01-31T13:09:53;13.07;;;2.95;;
22924;SDS011;11628;51.072;3.712;2023-01-31T13:12:25;14.68;;;3.47;;
22924;SDS011;11628;51.072;3.712;2023-01-31T13:22:54;15.23;;;3.47;;
22924;SDS011;11628;51.072;3.712;2023-01-31T13:28:05;12.15;;;3.28;;
22924;SDS011;11628;51.072;3.712;2023-01-31T13:30:49;14.02;;;3.08;;
22924;SDS011;11628;51.072;3.712;2023-01-31T13:36:24;15.70;;;3.20;;
22924;SDS011;11628;51.072;3.712;2023-01-31T13:38:45;11.63;;;2.67;;
22924;SDS011;11628;51.072;3.712;2023-01-31T13:43:47;15.25;;;2.92;;
22924;SDS011;11628;51.072;3.712;2023-01-31T13:46:13;16.02;;;3.17;;
22924;SDS011;11628;51.072;3.712;2023-01-31T13:51:28;12.13;;;2.72;;
22924;SDS011;11628;51.072;3.712;2023-01-31T13:56:34;7.70;;;2.03;;
22924;SDS011;11628;51.072;3.712;2023-01-31T13:59:03;11.20;;;2.55;;
22924;SDS011;11628;51.072;3.712;2023-01-31T14:01:34;14.07;;;3.10;;
22924;SDS011;11628;51.072;3.712;2023-01-31T14:06:53;11.45;;;2.63;;
22924;SDS011;11628;51.072;3.712;2023-01-31T14:09:35;24.60;;;4.63;;
22924;SDS011;11628;51.072;3.712;2023-01-31T14:14:36;10.90;;;2.17;;
22924;SDS011;11628;51.072;3.712;2023-01-31T14:22:21;6.72;;;2.13;;
22924;SDS011;11628;51.072;3.712;2023-01-31T14:30:08;9.90;;;2.47;;
22924;SDS011;11628;51.072;3.712;2023-01-31T14:57:59;12.57;;;2.92;;
22924;SDS011;11628;51.072;3.712;2023-01-31T15:00:36;8.15;;;2.28;;
22924;SDS011;11628;51.072;3.712;2023-01-31T15:05:51;11.50;;;3.03;;
22924;SDS011;11628;51.072;3.712;2023-01-31T15:16:16;10.23;;;2.83;;
22924;SDS011;11628;51.072;3.712;2023-01-31T15:18:44;10.88;;;2.50;;
22924;SDS011;11628;51.072;3.712;2023-01-31T15:21:12;9.77;;;2.28;;
22924;SDS011;11628;51.072;3.712;2023-01-31T15:24:04;10.23;;;2.60;;
22924;SDS011;11628;51.072;3.712;2023-01-31T15:26:36;8.55;;;2.78;;
22924;SDS011;11628;51.072;3.712;2023-01-31T15:29:05;10.82;;;2.70;;
22924;SDS011;11628;51.072;3.712;2023-01-31T15:31:34;10.68;;;3.05;;
22924;SDS011;11628;51.072;3.712;2023-01-31T15:34:13;11.40;;;2.80;;
22924;SDS011;11628;51.072;3.712;2023-01-31T15:36:52;8.82;;;2.40;;
22924;SDS011;11628;51.072;3.712;2023-01-31T15:39:24;8.18;;;1.95;;
22924;SDS011;11628;51.072;3.712;2023-01-31T15:47:41;10.18;;;2.55;;
22924;SDS011;11628;51.072;3.712;2023-01-31T15:50:15;9.63;;;2.35;;
22924;SDS011;11628;51.072;3.712;2023-01-31T15:52:42;11.73;;;2.58;;
22924;SDS011;11628;51.072;3.712;2023-01-31T15:55:11;8.90;;;2.72;;
22924;SDS011;11628;51.072;3.712;2023-01-31T16:00:26;10.30;;;2.67;;
22924;SDS011;11628;51.072;3.712;2023-01-31T16:02:52;9.90;;;2.38;;
22924;SDS011;11628;51.072;3.712;2023-01-31T16:05:35;7.68;;;2.85;;
22924;SDS011;11628;51.072;3.712;2023-01-31T16:08:03;12.43;;;3.38;;
22924;SDS011;11628;51.072;3.712;2023-01-31T16:10:40;9.93;;;3.17;;
22924;SDS011;11628;51.072;3.712;2023-01-31T16:13:09;9.80;;;3.42;;
22924;SDS011;11628;51.072;3.712;2023-01-31T16:15:36;7.82;;;3.20;;
22924;SDS011;11628;51.072;3.712;2023-01-31T16:18:03;8.30;;;3.08;;
22924;SDS011;11628;51.072;3.712;2023-01-31T16:28:39;11.40;;;3.38;;
22924;SDS011;11628;51.072;3.712;2023-01-31T16:31:11;12.05;;;3.65;;
22924;SDS011;11628;51.072;3.712;2023-01-31T16:33:44;9.48;;;3.05;;
22924;SDS011;11628;51.072;3.712;2023-01-31T16:36:12;12.52;;;3.22;;
22924;SDS011;11628;51.072;3.712;2023-01-31T16:38:40;15.07;;;4.30;;
22924;SDS011;11628;51.072;3.712;2023-01-31T16:41:07;12.20;;;3.90;;
22924;SDS011;11628;51.072;3.712;2023-01-31T16:43:37;8.45;;;3.50;;
22924;SDS011;11628;51.072;3.712;2023-01-31T16:46:52;12.32;;;3.83;;
22924;SDS011;11628;51.072;3.712;2023-01-31T16:49:04;11.80;;;5.72;;
22924;SDS011;11628;51.072;3.712;2023-01-31T16:51:41;12.77;;;6.47;;
22924;SDS011;11628;51.072;3.712;2023-01-31T16:54:27;14.30;;;9.18;;
22924;SDS011;11628;51.072;3.712;2023-01-31T17:04:39;12.52;;;5.00;;
22924;SDS011;11628;51.072;3.712;2023-01-31T17:09:51;13.75;;;5.00;;
22924;SDS011;11628;51.072;3.712;2023-01-31T17:12:26;14.15;;;4.40;;
22924;SDS011;11628;51.072;3.712;2023-01-31T17:14:53;12.40;;;4.57;;
22924;SDS011;11628;51.072;3.712;2023-01-31T17:17:23;15.23;;;4.43;;
22924;SDS011;11628;51.072;3.712;2023-01-31T17:19:51;12.55;;;4.25;;
22924;SDS011;11628;51.072;3.712;2023-01-31T17:22:17;13.38;;;4.00;;
22924;SDS011;11628;51.072;3.712;2023-01-31T17:24:43;12.75;;;4.30;;
22924;SDS011;11628;51.072;3.712;2023-01-31T17:27:14;12.27;;;4.10;;
22924;SDS011;11628;51.072;3.712;2023-01-31T17:29:41;13.55;;;4.43;;
22924;SDS011;11628;51.072;3.712;2023-01-31T17:32:16;13.20;;;4.30;;
22924;SDS011;11628;51.072;3.712;2023-01-31T17:34:43;12.65;;;4.10;;
22924;SDS011;11628;51.072;3.712;2023-01-31T17:37:11;13.05;;;4.35;;
22924;SDS011;11628;51.072;3.712;2023-01-31T17:39:37;13.73;;;4.30;;
22924;SDS011;11628;51.072;3.712;2023-01-31T17:42:03;14.32;;;4.68;;
22924;SDS011;11628;51.072;3.712;2023-01-31T17:44:30;13.52;;;4.75;;
22924;SDS011;11628;51.072;3.712;2023-01-31T17:46:56;14.70;;;4.68;;
22924;SDS011;11628;51.072;3.712;2023-01-31T17:49:22;10.70;;;3.95;;
22924;SDS011;11628;51.072;3.712;2023-01-31T17:51:48;13.82;;;4.10;;
22924;SDS011;11628;51.072;3.712;2023-01-31T17:54:14;18.23;;;4.30;;
22924;SDS011;11628;51.072;3.712;2023-01-31T17:56:40;11.02;;;4.22;;
22924;SDS011;11628;51.072;3.712;2023-01-31T17:59:07;15.30;;;4.40;;
22924;SDS011;11628;51.072;3.712;2023-01-31T18:01:33;13.48;;;4.47;;
22924;SDS011;11628;51.072;3.712;2023-01-31T18:04:00;15.68;;;5.07;;
22924;SDS011;11628;51.072;3.712;2023-01-31T18:06:27;12.35;;;4.53;;
22924;SDS011;11628;51.072;3.712;2023-01-31T18:08:53;9.80;;;4.00;;
22924;SDS011;11628;51.072;3.712;2023-01-31T18:11:19;11.30;;;5.20;;
22924;SDS011;11628;51.072;3.712;2023-01-31T18:13:45;8.35;;;4.47;;
22924;SDS011;11628;51.072;3.712;2023-01-31T18:16:15;12.95;;;4.78;;
22924;SDS011;11628;51.072;3.712;2023-01-31T18:18:44;11.77;;;5.15;;
22924;SDS011;11628;51.072;3.712;2023-01-31T18:21:10;11.60;;;5.53;;
22924;SDS011;11628;51.072;3.712;2023-01-31T18:23:37;15.98;;;4.53;;